sensor_id;sensor_type;location;lat;lon;timestamp;P1;durP1;ratioP1;P2;durP2;ratioP2
67227;SDS011;54139;42.616;23.748;2023-04-15T00:01:01;7.95;;;3.47;;
67227;SDS011;54139;42.616;23.748;2023-04-15T00:03:26;7.20;;;3.67;;
67227;SDS011;54139;42.616;23.748;2023-04-15T00:05:52;3.72;;;2.83;;
67227;SDS011;54139;42.616;23.748;2023-04-15T00:08:17;5.43;;;2.80;;
67227;SDS011;54139;42.616;23.748;2023-04-15T00:10:43;6.38;;;3.13;;
67227;SDS011;54139;42.616;23.748;2023-04-15T00:13:10;4.82;;;3.15;;
67227;SDS011;54139;42.616;23.748;2023-04-15T00:15:35;4.13;;;3.35;;
67227;SDS011;54139;42.616;23.748;2023-04-15T00:18:01;5.80;;;3.40;;
67227;SDS011;54139;42.616;23.748;2023-04-15T00:20:27;6.85;;;4.10;;
67227;SDS011;54139;42.616;23.748;2023-04-15T00:22:52;4.70;;;3.85;;
67227;SDS011;54139;42.616;23.748;2023-04-15T00:25:18;6.10;;;4.20;;
67227;SDS011;54139;42.616;23.748;2023-04-15T00:27:43;5.40;;;3.75;;
67227;SDS011;54139;42.616;23.748;2023-04-15T00:30:09;3.72;;;3.03;;
67227;SDS011;54139;42.616;23.748;2023-04-15T00:32:35;7.30;;;3.53;;
67227;SDS011;54139;42.616;23.748;2023-04-15T00:35:01;6.28;;;4.20;;
67227;SDS011;54139;42.616;23.748;2023-04-15T00:37:26;7.13;;;3.53;;
67227;SDS011;54139;42.616;23.748;2023-04-15T00:39:51;7.18;;;3.63;;
67227;SDS011;54139;42.616;23.748;2023-04-15T00:42:17;6.78;;;3.30;;
67227;SDS011;54139;42.616;23.748;2023-04-15T00:44:42;5.57;;;3.78;;
67227;SDS011;54139;42.616;23.748;2023-04-15T00:47:07;5.05;;;3.67;;
67227;SDS011;54139;42.616;23.748;2023-04-15T00:49:33;6.32;;;4.32;;
67227;SDS011;54139;42.616;23.748;2023-04-15T00:51:58;5.10;;;4.28;;
67227;SDS011;54139;42.616;23.748;2023-04-15T00:54:23;8.75;;;5.47;;
67227;SDS011;54139;42.616;23.748;2023-04-15T00:56:49;7.38;;;5.00;;
67227;SDS011;54139;42.616;23.748;2023-04-15T00:59:14;5.13;;;3.85;;
67227;SDS011;54139;42.616;23.748;2023-04-15T01:01:41;5.65;;;3.60;;
67227;SDS011;54139;42.616;23.748;2023-04-15T01:04:08;8.88;;;4.25;;
67227;SDS011;54139;42.616;23.748;2023-04-15T01:06:35;12.18;;;8.55;;
67227;SDS011;54139;42.616;23.748;2023-04-15T01:09:01;11.13;;;6.88;;
67227;SDS011;54139;42.616;23.748;2023-04-15T01:11:26;7.13;;;4.18;;
67227;SDS011;54139;42.616;23.748;2023-04-15T01:13:52;6.95;;;3.17;;
67227;SDS011;54139;42.616;23.748;2023-04-15T01:16:18;3.95;;;2.85;;
67227;SDS011;54139;42.616;23.748;2023-04-15T01:18:43;4.65;;;2.95;;
67227;SDS011;54139;42.616;23.748;2023-04-15T01:21:08;3.65;;;2.63;;
67227;SDS011;54139;42.616;23.748;2023-04-15T01:23:35;3.83;;;2.70;;
67227;SDS011;54139;42.616;23.748;2023-04-15T01:26:01;3.63;;;2.38;;
67227;SDS011;54139;42.616;23.748;2023-04-15T01:28:27;3.05;;;2.28;;
67227;SDS011;54139;42.616;23.748;2023-04-15T01:31:05;4.60;;;2.95;;
67227;SDS011;54139;42.616;23.748;2023-04-15T01:33:31;3.60;;;2.10;;
67227;SDS011;54139;42.616;23.748;2023-04-15T01:35:56;4.80;;;2.42;;
67227;SDS011;54139;42.616;23.748;2023-04-15T01:38:22;3.78;;;3.17;;
67227;SDS011;54139;42.616;23.748;2023-04-15T01:40:48;3.13;;;2.60;;
67227;SDS011;54139;42.616;23.748;2023-04-15T01:43:13;2.17;;;1.95;;
67227;SDS011;54139;42.616;23.748;2023-04-15T01:45:39;3.30;;;2.30;;
67227;SDS011;54139;42.616;23.748;2023-04-15T01:48:04;5.07;;;3.03;;
67227;SDS011;54139;42.616;23.748;2023-04-15T01:50:31;4.78;;;2.58;;
67227;SDS011;54139;42.616;23.748;2023-04-15T01:52:56;4.75;;;2.60;;
67227;SDS011;54139;42.616;23.748;2023-04-15T01:55:22;3.20;;;2.58;;
67227;SDS011;54139;42.616;23.748;2023-04-15T01:57:48;3.65;;;2.65;;
67227;SDS011;54139;42.616;23.748;2023-04-15T02:00:13;3.05;;;2.55;;
67227;SDS011;54139;42.616;23.748;2023-04-15T02:02:39;3.95;;;2.80;;
67227;SDS011;54139;42.616;23.748;2023-04-15T02:05:04;4.78;;;2.53;;
67227;SDS011;54139;42.616;23.748;2023-04-15T02:07:30;4.22;;;2.70;;
67227;SDS011;54139;42.616;23.748;2023-04-15T02:09:56;6.50;;;3.00;;
67227;SDS011;54139;42.616;23.748;2023-04-15T02:12:21;5.93;;;2.63;;
67227;SDS011;54139;42.616;23.748;2023-04-15T02:14:47;3.70;;;2.83;;
67227;SDS011;54139;42.616;23.748;2023-04-15T02:17:12;2.92;;;2.38;;
67227;SDS011;54139;42.616;23.748;2023-04-15T02:19:37;10.10;;;9.07;;
67227;SDS011;54139;42.616;23.748;2023-04-15T02:22:04;10.20;;;9.18;;
67227;SDS011;54139;42.616;23.748;2023-04-15T02:24:31;6.80;;;5.43;;
67227;SDS011;54139;42.616;23.748;2023-04-15T02:26:56;5.03;;;4.53;;
67227;SDS011;54139;42.616;23.748;2023-04-15T02:29:22;3.85;;;3.08;;
67227;SDS011;54139;42.616;23.748;2023-04-15T02:31:47;4.03;;;2.70;;
67227;SDS011;54139;42.616;23.748;2023-04-15T02:34:13;2.67;;;2.28;;
67227;SDS011;54139;42.616;23.748;2023-04-15T02:36:38;4.05;;;2.10;;
67227;SDS011;54139;42.616;23.748;2023-04-15T02:39:04;3.50;;;2.70;;
67227;SDS011;54139;42.616;23.748;2023-04-15T02:41:29;5.63;;;2.00;;
67227;SDS011;54139;42.616;23.748;2023-04-15T02:43:55;2.58;;;1.70;;
67227;SDS011;54139;42.616;23.748;2023-04-15T02:46:21;3.80;;;2.58;;
67227;SDS011;54139;42.616;23.748;2023-04-15T02:48:47;4.25;;;2.65;;
67227;SDS011;54139;42.616;23.748;2023-04-15T02:51:13;8.35;;;4.60;;
67227;SDS011;54139;42.616;23.748;2023-04-15T02:53:38;8.75;;;4.60;;
67227;SDS011;54139;42.616;23.748;2023-04-15T02:56:04;5.28;;;3.20;;
67227;SDS011;54139;42.616;23.748;2023-04-15T02:58:30;3.80;;;1.70;;
67227;SDS011;54139;42.616;23.748;2023-04-15T03:00:55;5.20;;;4.63;;
67227;SDS011;54139;42.616;23.748;2023-04-15T03:03:21;6.43;;;4.95;;
67227;SDS011;54139;42.616;23.748;2023-04-15T03:05:46;6.68;;;5.82;;
67227;SDS011;54139;42.616;23.748;2023-04-15T03:08:12;5.22;;;3.70;;
67227;SDS011;54139;42.616;23.748;2023-04-15T03:10:38;130.93;;;38.97;;
67227;SDS011;54139;42.616;23.748;2023-04-15T03:13:04;74.75;;;21.70;;
67227;SDS011;54139;42.616;23.748;2023-04-15T03:15:29;96.63;;;33.85;;
67227;SDS011;54139;42.616;23.748;2023-04-15T03:17:54;50.58;;;19.10;;
67227;SDS011;54139;42.616;23.748;2023-04-15T03:20:20;5.18;;;2.90;;
67227;SDS011;54139;42.616;23.748;2023-04-15T03:22:45;7.47;;;3.20;;
67227;SDS011;54139;42.616;23.748;2023-04-15T03:25:10;7.53;;;3.67;;
67227;SDS011;54139;42.616;23.748;2023-04-15T03:27:36;27.38;;;16.15;;
67227;SDS011;54139;42.616;23.748;2023-04-15T03:30:02;18.60;;;11.70;;
67227;SDS011;54139;42.616;23.748;2023-04-15T03:32:27;12.85;;;7.80;;
67227;SDS011;54139;42.616;23.748;2023-04-15T03:34:53;15.15;;;7.53;;
67227;SDS011;54139;42.616;23.748;2023-04-15T03:37:18;11.93;;;5.97;;
67227;SDS011;54139;42.616;23.748;2023-04-15T03:39:43;7.68;;;5.05;;
67227;SDS011;54139;42.616;23.748;2023-04-15T03:42:08;4.80;;;3.00;;
67227;SDS011;54139;42.616;23.748;2023-04-15T03:44:34;4.95;;;2.83;;
67227;SDS011;54139;42.616;23.748;2023-04-15T03:46:59;6.80;;;3.17;;
67227;SDS011;54139;42.616;23.748;2023-04-15T03:49:24;4.60;;;2.70;;
67227;SDS011;54139;42.616;23.748;2023-04-15T03:51:50;5.50;;;2.45;;
67227;SDS011;54139;42.616;23.748;2023-04-15T03:54:15;3.40;;;2.30;;
67227;SDS011;54139;42.616;23.748;2023-04-15T03:56:40;6.35;;;2.75;;
67227;SDS011;54139;42.616;23.748;2023-04-15T03:59:06;4.45;;;3.65;;
67227;SDS011;54139;42.616;23.748;2023-04-15T04:01:31;7.70;;;5.05;;
67227;SDS011;54139;42.616;23.748;2023-04-15T04:03:56;5.72;;;3.38;;
67227;SDS011;54139;42.616;23.748;2023-04-15T04:06:22;5.28;;;3.22;;
67227;SDS011;54139;42.616;23.748;2023-04-15T04:08:47;4.50;;;2.90;;
67227;SDS011;54139;42.616;23.748;2023-04-15T04:11:12;2.97;;;2.63;;
67227;SDS011;54139;42.616;23.748;2023-04-15T04:13:38;3.45;;;2.60;;
67227;SDS011;54139;42.616;23.748;2023-04-15T04:16:03;5.45;;;3.10;;
67227;SDS011;54139;42.616;23.748;2023-04-15T04:18:29;4.18;;;3.38;;
67227;SDS011;54139;42.616;23.748;2023-04-15T04:20:55;13.63;;;10.23;;
67227;SDS011;54139;42.616;23.748;2023-04-15T04:23:20;10.40;;;6.50;;
67227;SDS011;54139;42.616;23.748;2023-04-15T04:25:45;7.15;;;4.05;;
67227;SDS011;54139;42.616;23.748;2023-04-15T04:28:11;5.20;;;3.40;;
67227;SDS011;54139;42.616;23.748;2023-04-15T04:30:36;4.10;;;2.95;;
67227;SDS011;54139;42.616;23.748;2023-04-15T04:38:12;3.88;;;2.42;;
67227;SDS011;54139;42.616;23.748;2023-04-15T04:40:37;28.80;;;11.20;;
67227;SDS011;54139;42.616;23.748;2023-04-15T04:43:02;43.05;;;20.60;;
67227;SDS011;54139;42.616;23.748;2023-04-15T04:45:28;23.63;;;14.02;;
67227;SDS011;54139;42.616;23.748;2023-04-15T04:47:53;3.37;;;2.73;;
67227;SDS011;54139;42.616;23.748;2023-04-15T04:50:18;3.33;;;3.00;;
67227;SDS011;54139;42.616;23.748;2023-04-15T04:52:44;3.30;;;3.00;;
67227;SDS011;54139;42.616;23.748;2023-04-15T04:55:09;3.70;;;3.10;;
67227;SDS011;54139;42.616;23.748;2023-04-15T04:57:34;5.45;;;3.30;;
67227;SDS011;54139;42.616;23.748;2023-04-15T05:00:00;3.53;;;3.20;;
67227;SDS011;54139;42.616;23.748;2023-04-15T05:02:26;4.43;;;3.40;;
67227;SDS011;54139;42.616;23.748;2023-04-15T05:04:51;6.67;;;3.03;;
67227;SDS011;54139;42.616;23.748;2023-04-15T05:07:18;4.03;;;3.50;;
67227;SDS011;54139;42.616;23.748;2023-04-15T05:09:45;5.90;;;4.45;;
67227;SDS011;54139;42.616;23.748;2023-04-15T05:12:10;7.80;;;6.05;;
67227;SDS011;54139;42.616;23.748;2023-04-15T05:14:39;6.63;;;4.85;;
67227;SDS011;54139;42.616;23.748;2023-04-15T05:17:04;4.40;;;4.00;;
67227;SDS011;54139;42.616;23.748;2023-04-15T05:19:29;3.70;;;3.40;;
67227;SDS011;54139;42.616;23.748;2023-04-15T05:21:55;5.13;;;2.90;;
67227;SDS011;54139;42.616;23.748;2023-04-15T05:24:20;3.13;;;2.40;;
67227;SDS011;54139;42.616;23.748;2023-04-15T05:26:46;3.80;;;2.78;;
67227;SDS011;54139;42.616;23.748;2023-04-15T05:29:11;2.88;;;2.67;;
67227;SDS011;54139;42.616;23.748;2023-04-15T05:31:36;4.93;;;4.53;;
67227;SDS011;54139;42.616;23.748;2023-04-15T05:34:02;6.00;;;5.32;;
67227;SDS011;54139;42.616;23.748;2023-04-15T05:36:27;7.82;;;4.28;;
67227;SDS011;54139;42.616;23.748;2023-04-15T05:38:53;5.23;;;3.17;;
67227;SDS011;54139;42.616;23.748;2023-04-15T05:41:18;3.97;;;2.80;;
67227;SDS011;54139;42.616;23.748;2023-04-15T05:43:43;4.93;;;4.53;;
67227;SDS011;54139;42.616;23.748;2023-04-15T05:46:09;4.13;;;3.83;;
67227;SDS011;54139;42.616;23.748;2023-04-15T05:48:34;6.77;;;4.20;;
67227;SDS011;54139;42.616;23.748;2023-04-15T05:50:59;4.25;;;3.85;;
67227;SDS011;54139;42.616;23.748;2023-04-15T05:53:25;3.80;;;2.85;;
67227;SDS011;54139;42.616;23.748;2023-04-15T05:55:50;3.22;;;2.92;;
67227;SDS011;54139;42.616;23.748;2023-04-15T05:58:16;9.77;;;3.05;;
67227;SDS011;54139;42.616;23.748;2023-04-15T06:00:41;7.22;;;2.20;;
67227;SDS011;54139;42.616;23.748;2023-04-15T06:03:07;3.92;;;2.25;;
67227;SDS011;54139;42.616;23.748;2023-04-15T06:05:33;3.45;;;2.35;;
67227;SDS011;54139;42.616;23.748;2023-04-15T06:07:58;2.42;;;2.03;;
67227;SDS011;54139;42.616;23.748;2023-04-15T06:10:23;3.27;;;2.20;;
67227;SDS011;54139;42.616;23.748;2023-04-15T06:12:51;2.17;;;2.00;;
67227;SDS011;54139;42.616;23.748;2023-04-15T06:15:16;2.67;;;2.33;;
67227;SDS011;54139;42.616;23.748;2023-04-15T06:17:42;2.35;;;1.92;;
67227;SDS011;54139;42.616;23.748;2023-04-15T06:20:07;5.28;;;2.40;;
67227;SDS011;54139;42.616;23.748;2023-04-15T06:22:32;3.38;;;2.95;;
67227;SDS011;54139;42.616;23.748;2023-04-15T06:24:58;4.53;;;3.22;;
67227;SDS011;54139;42.616;23.748;2023-04-15T06:27:23;3.90;;;2.72;;
67227;SDS011;54139;42.616;23.748;2023-04-15T06:29:48;4.20;;;2.88;;
67227;SDS011;54139;42.616;23.748;2023-04-15T06:32:14;3.70;;;2.15;;
67227;SDS011;54139;42.616;23.748;2023-04-15T06:34:39;1.98;;;1.80;;
67227;SDS011;54139;42.616;23.748;2023-04-15T06:37:04;2.20;;;2.00;;
67227;SDS011;54139;42.616;23.748;2023-04-15T06:39:31;2.33;;;1.83;;
67227;SDS011;54139;42.616;23.748;2023-04-15T06:41:57;2.08;;;1.65;;
67227;SDS011;54139;42.616;23.748;2023-04-15T06:44:22;4.10;;;1.80;;
67227;SDS011;54139;42.616;23.748;2023-04-15T06:46:47;1.87;;;1.33;;
67227;SDS011;54139;42.616;23.748;2023-04-15T06:49:13;2.22;;;1.48;;
67227;SDS011;54139;42.616;23.748;2023-04-15T06:51:38;3.07;;;1.63;;
67227;SDS011;54139;42.616;23.748;2023-04-15T06:54:03;1.73;;;1.63;;
67227;SDS011;54139;42.616;23.748;2023-04-15T06:56:33;3.40;;;1.60;;
67227;SDS011;54139;42.616;23.748;2023-04-15T06:58:58;3.80;;;1.70;;
67227;SDS011;54139;42.616;23.748;2023-04-15T07:01:24;1.70;;;1.43;;
67227;SDS011;54139;42.616;23.748;2023-04-15T07:03:49;1.77;;;1.50;;
67227;SDS011;54139;42.616;23.748;2023-04-15T07:06:14;2.20;;;1.53;;
67227;SDS011;54139;42.616;23.748;2023-04-15T07:08:39;1.53;;;1.27;;
67227;SDS011;54139;42.616;23.748;2023-04-15T07:11:06;2.28;;;1.25;;
67227;SDS011;54139;42.616;23.748;2023-04-15T07:13:31;2.70;;;1.42;;
67227;SDS011;54139;42.616;23.748;2023-04-15T07:15:57;5.15;;;1.30;;
67227;SDS011;54139;42.616;23.748;2023-04-15T07:18:22;1.88;;;1.50;;
67227;SDS011;54139;42.616;23.748;2023-04-15T07:20:47;2.67;;;1.47;;
67227;SDS011;54139;42.616;23.748;2023-04-15T07:23:12;2.67;;;1.40;;
67227;SDS011;54139;42.616;23.748;2023-04-15T07:25:38;2.63;;;2.17;;
67227;SDS011;54139;42.616;23.748;2023-04-15T07:28:03;3.17;;;1.75;;
67227;SDS011;54139;42.616;23.748;2023-04-15T07:30:29;3.20;;;1.70;;
67227;SDS011;54139;42.616;23.748;2023-04-15T07:32:54;3.78;;;1.60;;
67227;SDS011;54139;42.616;23.748;2023-04-15T07:35:20;3.78;;;1.80;;
67227;SDS011;54139;42.616;23.748;2023-04-15T07:37:45;2.05;;;1.65;;
67227;SDS011;54139;42.616;23.748;2023-04-15T07:40:11;3.08;;;1.60;;
67227;SDS011;54139;42.616;23.748;2023-04-15T07:42:36;2.60;;;1.45;;
67227;SDS011;54139;42.616;23.748;2023-04-15T07:45:02;4.78;;;1.60;;
67227;SDS011;54139;42.616;23.748;2023-04-15T07:47:27;8.07;;;1.63;;
67227;SDS011;54139;42.616;23.748;2023-04-15T07:49:53;2.55;;;1.50;;
67227;SDS011;54139;42.616;23.748;2023-04-15T07:52:18;4.80;;;1.27;;
67227;SDS011;54139;42.616;23.748;2023-04-15T07:54:44;3.95;;;1.58;;
67227;SDS011;54139;42.616;23.748;2023-04-15T07:57:09;1.85;;;1.40;;
67227;SDS011;54139;42.616;23.748;2023-04-15T07:59:35;1.80;;;1.13;;
67227;SDS011;54139;42.616;23.748;2023-04-15T08:02:00;2.40;;;1.40;;
67227;SDS011;54139;42.616;23.748;2023-04-15T08:04:26;3.40;;;1.60;;
67227;SDS011;54139;42.616;23.748;2023-04-15T08:06:52;2.65;;;1.60;;
67227;SDS011;54139;42.616;23.748;2023-04-15T08:09:17;3.72;;;1.42;;
67227;SDS011;54139;42.616;23.748;2023-04-15T08:11:43;3.03;;;1.10;;
67227;SDS011;54139;42.616;23.748;2023-04-15T08:14:08;5.82;;;1.40;;
67227;SDS011;54139;42.616;23.748;2023-04-15T08:16:34;1.98;;;1.23;;
67227;SDS011;54139;42.616;23.748;2023-04-15T08:18:59;1.88;;;1.20;;
67227;SDS011;54139;42.616;23.748;2023-04-15T08:21:25;2.78;;;1.48;;
67227;SDS011;54139;42.616;23.748;2023-04-15T08:23:52;1.92;;;1.20;;
67227;SDS011;54139;42.616;23.748;2023-04-15T08:26:17;2.10;;;1.20;;
67227;SDS011;54139;42.616;23.748;2023-04-15T08:28:43;2.63;;;0.90;;
67227;SDS011;54139;42.616;23.748;2023-04-15T08:31:08;2.88;;;0.80;;
67227;SDS011;54139;42.616;23.748;2023-04-15T08:33:34;2.25;;;0.95;;
67227;SDS011;54139;42.616;23.748;2023-04-15T08:35:59;2.65;;;0.93;;
67227;SDS011;54139;42.616;23.748;2023-04-15T08:38:25;2.50;;;1.30;;
67227;SDS011;54139;42.616;23.748;2023-04-15T08:40:50;2.45;;;1.13;;
67227;SDS011;54139;42.616;23.748;2023-04-15T08:43:23;1.25;;;0.95;;
67227;SDS011;54139;42.616;23.748;2023-04-15T08:45:52;2.20;;;0.70;;
67227;SDS011;54139;42.616;23.748;2023-04-15T08:48:18;2.20;;;1.02;;
67227;SDS011;54139;42.616;23.748;2023-04-15T08:50:44;2.17;;;0.82;;
67227;SDS011;54139;42.616;23.748;2023-04-15T08:53:10;1.95;;;1.00;;
67227;SDS011;54139;42.616;23.748;2023-04-15T08:55:35;3.67;;;1.05;;
67227;SDS011;54139;42.616;23.748;2023-04-15T08:58:04;2.72;;;0.80;;
67227;SDS011;54139;42.616;23.748;2023-04-15T09:00:30;1.67;;;1.02;;
67227;SDS011;54139;42.616;23.748;2023-04-15T09:02:56;2.13;;;0.75;;
67227;SDS011;54139;42.616;23.748;2023-04-15T09:05:22;1.73;;;0.90;;
67227;SDS011;54139;42.616;23.748;2023-04-15T09:07:49;2.27;;;0.80;;
67227;SDS011;54139;42.616;23.748;2023-04-15T09:10:14;2.30;;;0.70;;
67227;SDS011;54139;42.616;23.748;2023-04-15T09:12:40;2.13;;;0.90;;
67227;SDS011;54139;42.616;23.748;2023-04-15T09:15:05;2.22;;;0.80;;
67227;SDS011;54139;42.616;23.748;2023-04-15T09:17:32;2.38;;;0.95;;
67227;SDS011;54139;42.616;23.748;2023-04-15T09:22:53;2.20;;;1.10;;
67227;SDS011;54139;42.616;23.748;2023-04-15T09:27:59;1.10;;;0.80;;
67227;SDS011;54139;42.616;23.748;2023-04-15T09:30:26;2.05;;;0.80;;
67227;SDS011;54139;42.616;23.748;2023-04-15T09:35:17;1.87;;;0.73;;
67227;SDS011;54139;42.616;23.748;2023-04-15T09:37:43;3.30;;;0.75;;
67227;SDS011;54139;42.616;23.748;2023-04-15T09:40:08;0.90;;;0.65;;
67227;SDS011;54139;42.616;23.748;2023-04-15T09:42:35;2.00;;;0.90;;
67227;SDS011;54139;42.616;23.748;2023-04-15T09:45:07;2.22;;;0.90;;
67227;SDS011;54139;42.616;23.748;2023-04-15T09:47:33;1.33;;;0.80;;
67227;SDS011;54139;42.616;23.748;2023-04-15T09:49:58;2.63;;;0.90;;
67227;SDS011;54139;42.616;23.748;2023-04-15T09:52:24;2.30;;;0.80;;
67227;SDS011;54139;42.616;23.748;2023-04-15T09:54:52;2.70;;;1.00;;
67227;SDS011;54139;42.616;23.748;2023-04-15T09:57:17;2.17;;;0.68;;
67227;SDS011;54139;42.616;23.748;2023-04-15T09:59:42;2.40;;;0.60;;
67227;SDS011;54139;42.616;23.748;2023-04-15T10:02:07;3.38;;;0.77;;
67227;SDS011;54139;42.616;23.748;2023-04-15T10:04:34;1.33;;;0.85;;
67227;SDS011;54139;42.616;23.748;2023-04-15T10:07:00;2.05;;;0.90;;
67227;SDS011;54139;42.616;23.748;2023-04-15T10:09:27;1.35;;;0.90;;
67227;SDS011;54139;42.616;23.748;2023-04-15T10:11:52;2.97;;;1.25;;
67227;SDS011;54139;42.616;23.748;2023-04-15T10:14:18;1.73;;;1.00;;
67227;SDS011;54139;42.616;23.748;2023-04-15T10:16:44;3.60;;;1.00;;
67227;SDS011;54139;42.616;23.748;2023-04-15T10:19:12;3.35;;;0.93;;
67227;SDS011;54139;42.616;23.748;2023-04-15T10:21:40;1.88;;;0.82;;
67227;SDS011;54139;42.616;23.748;2023-04-15T10:24:05;1.75;;;1.15;;
67227;SDS011;54139;42.616;23.748;2023-04-15T10:26:31;4.38;;;0.65;;
67227;SDS011;54139;42.616;23.748;2023-04-15T10:28:56;1.90;;;0.68;;
67227;SDS011;54139;42.616;23.748;2023-04-15T10:31:22;1.50;;;0.70;;
67227;SDS011;54139;42.616;23.748;2023-04-15T10:33:47;3.50;;;1.13;;
67227;SDS011;54139;42.616;23.748;2023-04-15T10:36:13;2.08;;;0.82;;
67227;SDS011;54139;42.616;23.748;2023-04-15T10:38:42;2.90;;;0.82;;
67227;SDS011;54139;42.616;23.748;2023-04-15T10:41:12;3.22;;;0.80;;
67227;SDS011;54139;42.616;23.748;2023-04-15T10:43:38;3.00;;;0.75;;
67227;SDS011;54139;42.616;23.748;2023-04-15T10:46:06;1.73;;;0.68;;
67227;SDS011;54139;42.616;23.748;2023-04-15T10:48:32;1.67;;;0.73;;
67227;SDS011;54139;42.616;23.748;2023-04-15T10:50:59;2.40;;;0.73;;
67227;SDS011;54139;42.616;23.748;2023-04-15T10:53:28;1.35;;;0.80;;
67227;SDS011;54139;42.616;23.748;2023-04-15T10:55:55;2.05;;;0.90;;
67227;SDS011;54139;42.616;23.748;2023-04-15T10:58:24;2.53;;;0.82;;
67227;SDS011;54139;42.616;23.748;2023-04-15T11:00:50;1.92;;;0.90;;
67227;SDS011;54139;42.616;23.748;2023-04-15T11:03:37;1.88;;;0.75;;
67227;SDS011;54139;42.616;23.748;2023-04-15T11:06:03;1.45;;;0.60;;
67227;SDS011;54139;42.616;23.748;2023-04-15T11:14:17;2.95;;;0.68;;
67227;SDS011;54139;42.616;23.748;2023-04-15T11:16:43;3.08;;;1.00;;
67227;SDS011;54139;42.616;23.748;2023-04-15T11:19:10;3.13;;;0.75;;
67227;SDS011;54139;42.616;23.748;2023-04-15T11:21:36;1.15;;;0.68;;
67227;SDS011;54139;42.616;23.748;2023-04-15T11:24:01;1.13;;;0.70;;
67227;SDS011;54139;42.616;23.748;2023-04-15T11:26:27;3.03;;;0.98;;
67227;SDS011;54139;42.616;23.748;2023-04-15T11:28:53;1.13;;;0.80;;
67227;SDS011;54139;42.616;23.748;2023-04-15T11:31:18;1.95;;;0.80;;
67227;SDS011;54139;42.616;23.748;2023-04-15T11:33:44;1.20;;;0.60;;
67227;SDS011;54139;42.616;23.748;2023-04-15T11:36:10;1.35;;;0.50;;
67227;SDS011;54139;42.616;23.748;2023-04-15T11:38:36;1.30;;;0.70;;
67227;SDS011;54139;42.616;23.748;2023-04-15T11:41:02;1.63;;;0.63;;
67227;SDS011;54139;42.616;23.748;2023-04-15T11:43:27;1.42;;;0.88;;
67227;SDS011;54139;42.616;23.748;2023-04-15T11:45:59;3.20;;;0.80;;
67227;SDS011;54139;42.616;23.748;2023-04-15T11:48:26;1.70;;;0.85;;
67227;SDS011;54139;42.616;23.748;2023-04-15T11:51:01;2.20;;;0.80;;
67227;SDS011;54139;42.616;23.748;2023-04-15T11:53:43;1.55;;;0.85;;
67227;SDS011;54139;42.616;23.748;2023-04-15T11:56:10;1.90;;;0.80;;
67227;SDS011;54139;42.616;23.748;2023-04-15T11:58:40;3.53;;;0.90;;
67227;SDS011;54139;42.616;23.748;2023-04-15T12:01:07;1.73;;;1.10;;
67227;SDS011;54139;42.616;23.748;2023-04-15T12:03:43;4.05;;;1.00;;
67227;SDS011;54139;42.616;23.748;2023-04-15T12:11:12;1.63;;;1.08;;
67227;SDS011;54139;42.616;23.748;2023-04-15T12:13:38;2.03;;;0.73;;
67227;SDS011;54139;42.616;23.748;2023-04-15T12:16:03;0.67;;;0.60;;
67227;SDS011;54139;42.616;23.748;2023-04-15T12:18:28;2.13;;;0.70;;
67227;SDS011;54139;42.616;23.748;2023-04-15T12:20:53;2.60;;;0.77;;
67227;SDS011;54139;42.616;23.748;2023-04-15T12:23:19;1.45;;;0.65;;
67227;SDS011;54139;42.616;23.748;2023-04-15T12:25:50;1.73;;;0.60;;
67227;SDS011;54139;42.616;23.748;2023-04-15T12:28:16;1.40;;;0.68;;
67227;SDS011;54139;42.616;23.748;2023-04-15T12:30:50;2.38;;;0.90;;
67227;SDS011;54139;42.616;23.748;2023-04-15T12:33:16;1.83;;;0.80;;
67227;SDS011;54139;42.616;23.748;2023-04-15T12:35:41;2.80;;;0.90;;
67227;SDS011;54139;42.616;23.748;2023-04-15T12:38:07;1.83;;;0.67;;
67227;SDS011;54139;42.616;23.748;2023-04-15T12:40:34;1.90;;;1.05;;
67227;SDS011;54139;42.616;23.748;2023-04-15T12:43:00;1.33;;;0.65;;
67227;SDS011;54139;42.616;23.748;2023-04-15T12:45:25;1.00;;;0.60;;
67227;SDS011;54139;42.616;23.748;2023-04-15T12:47:51;1.50;;;0.70;;
67227;SDS011;54139;42.616;23.748;2023-04-15T12:50:16;2.83;;;0.63;;
67227;SDS011;54139;42.616;23.748;2023-04-15T12:52:42;1.88;;;0.60;;
67227;SDS011;54139;42.616;23.748;2023-04-15T12:55:07;2.38;;;0.80;;
67227;SDS011;54139;42.616;23.748;2023-04-15T12:57:33;1.83;;;0.75;;
67227;SDS011;54139;42.616;23.748;2023-04-15T12:59:58;1.55;;;0.77;;
67227;SDS011;54139;42.616;23.748;2023-04-15T13:02:23;1.73;;;0.90;;
67227;SDS011;54139;42.616;23.748;2023-04-15T13:04:51;2.38;;;0.60;;
67227;SDS011;54139;42.616;23.748;2023-04-15T13:07:16;2.03;;;0.93;;
67227;SDS011;54139;42.616;23.748;2023-04-15T13:09:41;3.92;;;0.82;;
67227;SDS011;54139;42.616;23.748;2023-04-15T13:12:06;3.95;;;1.00;;
67227;SDS011;54139;42.616;23.748;2023-04-15T13:14:32;1.50;;;0.70;;
67227;SDS011;54139;42.616;23.748;2023-04-15T13:16:57;5.60;;;1.10;;
67227;SDS011;54139;42.616;23.748;2023-04-15T13:19:23;3.70;;;0.90;;
67227;SDS011;54139;42.616;23.748;2023-04-15T13:21:48;1.40;;;0.80;;
67227;SDS011;54139;42.616;23.748;2023-04-15T13:24:13;0.82;;;0.70;;
67227;SDS011;54139;42.616;23.748;2023-04-15T13:26:39;1.20;;;0.70;;
67227;SDS011;54139;42.616;23.748;2023-04-15T13:29:04;2.10;;;0.70;;
67227;SDS011;54139;42.616;23.748;2023-04-15T13:31:29;1.45;;;0.85;;
67227;SDS011;54139;42.616;23.748;2023-04-15T13:33:55;1.35;;;0.80;;
67227;SDS011;54139;42.616;23.748;2023-04-15T13:36:21;2.08;;;0.80;;
67227;SDS011;54139;42.616;23.748;2023-04-15T13:38:46;2.08;;;0.50;;
67227;SDS011;54139;42.616;23.748;2023-04-15T13:41:12;3.20;;;0.90;;
67227;SDS011;54139;42.616;23.748;2023-04-15T13:43:37;1.48;;;0.68;;
67227;SDS011;54139;42.616;23.748;2023-04-15T13:46:02;3.37;;;1.03;;
67227;SDS011;54139;42.616;23.748;2023-04-15T13:48:28;1.48;;;0.65;;
67227;SDS011;54139;42.616;23.748;2023-04-15T13:50:53;1.63;;;0.70;;
67227;SDS011;54139;42.616;23.748;2023-04-15T13:53:18;2.13;;;0.80;;
67227;SDS011;54139;42.616;23.748;2023-04-15T13:55:44;1.35;;;0.63;;
67227;SDS011;54139;42.616;23.748;2023-04-15T13:58:09;1.10;;;0.60;;
67227;SDS011;54139;42.616;23.748;2023-04-15T14:00:35;3.50;;;0.75;;
67227;SDS011;54139;42.616;23.748;2023-04-15T14:03:00;1.75;;;0.68;;
67227;SDS011;54139;42.616;23.748;2023-04-15T14:05:25;1.02;;;0.63;;
67227;SDS011;54139;42.616;23.748;2023-04-15T14:07:51;1.90;;;1.00;;
67227;SDS011;54139;42.616;23.748;2023-04-15T14:10:16;1.25;;;0.50;;
67227;SDS011;54139;42.616;23.748;2023-04-15T14:12:41;2.83;;;1.05;;
67227;SDS011;54139;42.616;23.748;2023-04-15T14:15:07;1.48;;;0.65;;
67227;SDS011;54139;42.616;23.748;2023-04-15T14:17:32;2.08;;;0.60;;
67227;SDS011;54139;42.616;23.748;2023-04-15T14:19:58;5.47;;;0.80;;
67227;SDS011;54139;42.616;23.748;2023-04-15T14:22:23;2.50;;;0.52;;
67227;SDS011;54139;42.616;23.748;2023-04-15T14:24:48;2.15;;;0.60;;
67227;SDS011;54139;42.616;23.748;2023-04-15T14:27:14;2.65;;;0.57;;
67227;SDS011;54139;42.616;23.748;2023-04-15T14:29:39;1.98;;;0.88;;
67227;SDS011;54139;42.616;23.748;2023-04-15T14:32:04;2.85;;;0.85;;
67227;SDS011;54139;42.616;23.748;2023-04-15T14:34:30;3.13;;;0.60;;
67227;SDS011;54139;42.616;23.748;2023-04-15T14:36:56;2.55;;;0.80;;
67227;SDS011;54139;42.616;23.748;2023-04-15T14:39:21;2.42;;;1.02;;
67227;SDS011;54139;42.616;23.748;2023-04-15T14:41:46;3.83;;;0.75;;
67227;SDS011;54139;42.616;23.748;2023-04-15T14:44:12;1.80;;;0.85;;
67227;SDS011;54139;42.616;23.748;2023-04-15T14:46:37;2.03;;;0.65;;
67227;SDS011;54139;42.616;23.748;2023-04-15T14:49:04;0.95;;;0.73;;